Time;durP1;ratioP1;P1;durP2;ratioP2;P2;SDS_P1;SDS_P2;PMS_P1;PMS_P2;Temp;Humidity;BMP_temperature;BMP_pressure;BME280_temperature;BME280_humidity;BME280_pressure;Samples;Min_cycle;Max_cycle;Signal;HPM_P1;HPM_P2
2022/12/05 00:01:28;;;;;;;9.05;5.53;;;;;;;6.15;71.82;100431.09;4442994;32;34356;-85
2022/12/05 00:03:58;;;;;;;7.37;5.10;;;;;;;5.94;72.97;100431.19;4449848;32;33875;-88
2022/12/05 00:06:28;;;;;;;9.27;5.65;;;;;;;6.15;72.24;100425.69;4442386;32;32990;-84
2022/12/05 00:08:56;;;;;;;11.43;6.00;;;;;;;6.34;71.23;100425.94;4432299;32;34626;-85
2022/12/05 00:11:26;;;;;;;9.95;6.40;;;;;;;5.90;73.54;100428.06;4451066;32;35052;-87
2022/12/05 00:13:55;;;;;;;9.45;5.95;;;;;;;6.31;71.56;100418.25;4451008;32;34751;-86
2022/12/05 00:16:26;;;;;;;9.02;5.87;;;;;;;5.67;73.82;100419.47;4443533;32;33108;-85
2022/12/05 00:18:53;;;;;;;8.38;5.82;;;;;;;6.00;73.02;100416.09;4443769;32;34995;-85
2022/12/05 00:21:23;;;;;;;9.68;5.95;;;;;;;6.12;72.44;100418.00;4451836;32;34205;-84
2022/12/05 00:23:52;;;;;;;11.43;6.25;;;;;;;6.38;71.52;100419.09;4465066;32;33607;-83
2022/12/05 00:26:20;;;;;;;8.32;5.75;;;;;;;6.29;71.56;100418.47;4458796;32;34789;-84
2022/12/05 00:28:48;;;;;;;8.65;5.85;;;;;;;5.72;74.44;100416.97;4468076;32;33926;-84
2022/12/05 00:31:21;;;;;;;9.93;5.90;;;;;;;5.76;74.32;100424.47;4468681;32;33954;-86
2022/12/05 00:33:48;;;;;;;8.65;5.87;;;;;;;5.82;73.96;100420.16;4467326;32;34250;-84
2022/12/05 00:36:23;;;;;;;9.73;5.68;;;;;;;5.53;74.69;100410.50;4459022;32;33620;-87
2022/12/05 00:38:51;;;;;;;11.02;6.55;;;;;;;5.42;75.51;100409.19;4445585;32;32751;-85
2022/12/05 00:41:24;;;;;;;10.05;6.05;;;;;;;5.73;74.60;100418.66;4466916;32;35180;-85
2022/12/05 00:43:52;;;;;;;9.57;6.20;;;;;;;6.08;73.53;100415.91;4456711;32;33629;-84
2022/12/05 00:46:22;;;;;;;9.50;5.97;;;;;;;6.09;72.82;100421.09;4467419;32;33320;-84
2022/12/05 00:48:54;;;;;;;9.35;5.30;;;;;;;6.00;73.15;100416.09;4466136;32;32094;-83
2022/12/05 00:51:36;;;;;;;8.43;5.62;;;;;;;6.25;72.33;100425.28;4442406;32;33498;-85
2022/12/05 00:54:07;;;;;;;10.02;6.30;;;;;;;5.88;73.25;100423.91;4438471;32;33585;-84
2022/12/05 00:56:35;;;;;;;10.77;6.28;;;;;;;6.28;72.00;100422.16;4450642;32;33528;-85
2022/12/05 00:59:03;;;;;;;8.82;5.90;;;;;;;5.50;75.10;100413.56;4467836;32;33498;-84
2022/12/05 01:01:33;;;;;;;7.97;5.57;;;;;;;5.58;75.60;100418.78;4468380;32;34332;-85
2022/12/05 01:04:07;;;;;;;7.65;5.22;;;;;;;5.49;76.01;100410.06;4460294;32;34695;-85
2022/12/05 01:06:35;;;;;;;10.13;6.30;;;;;;;5.48;75.95;100410.25;4459700;32;34056;-85
2022/12/05 01:09:03;;;;;;;8.52;5.50;;;;;;;5.61;75.51;100413.00;4459793;32;33905;-85
2022/12/05 01:11:30;;;;;;;10.27;6.15;;;;;;;5.33;77.05;100413.06;4466594;32;34988;-85
2022/12/05 01:14:04;;;;;;;10.18;6.00;;;;;;;5.19;77.50;100409.47;4464176;32;34017;-85
2022/12/05 01:16:35;;;;;;;8.82;5.80;;;;;;;5.77;75.33;100406.47;4463780;32;33080;-84
2022/12/05 01:19:06;;;;;;;9.90;5.87;;;;;;;5.29;77.33;100403.72;4447880;32;33702;-87
2022/12/05 01:21:33;;;;;;;10.55;6.07;;;;;;;5.17;77.83;100389.19;4449067;32;35343;-86
2022/12/05 01:24:01;;;;;;;9.60;6.10;;;;;;;4.86;79.19;100387.72;4451784;32;34106;-85
2022/12/05 01:26:28;;;;;;;10.00;6.37;;;;;;;5.35;77.15;100390.31;4439202;32;33258;-85
2022/12/05 01:28:56;;;;;;;9.35;5.95;;;;;;;5.00;79.11;100394.03;4449373;32;33978;-87
2022/12/05 01:31:30;;;;;;;9.85;6.25;;;;;;;5.53;76.65;100392.47;4437687;32;33786;-85
2022/12/05 01:33:59;;;;;;;9.85;5.97;;;;;;;5.34;78.14;100399.41;4437420;32;34255;-86
2022/12/05 01:36:27;;;;;;;10.73;6.18;;;;;;;5.49;77.45;100403.84;4423400;32;33582;-85
2022/12/05 01:38:55;;;;;;;10.02;5.85;;;;;;;5.03;79.03;100405.25;4424169;32;33508;-84
2022/12/05 01:41:25;;;;;;;10.02;6.00;;;;;;;5.05;79.43;100405.84;4445738;32;33223;-85
2022/12/05 01:44:11;;;;;;;10.82;6.43;;;;;;;5.22;79.15;100398.31;4452838;32;33973;-84
2022/12/05 01:46:43;;;;;;;10.60;6.50;;;;;;;5.14;78.98;100401.19;4452733;32;33086;-85
2022/12/05 01:49:14;;;;;;;10.75;6.50;;;;;;;5.38;78.38;100405.25;4451057;32;33868;-84
2022/12/05 01:51:46;;;;;;;10.50;6.28;;;;;;;5.30;78.42;100400.03;4451640;32;35258;-84
2022/12/05 01:54:15;;;;;;;11.00;6.87;;;;;;;5.22;79.04;100394.78;4451390;32;33671;-84
2022/12/05 01:56:48;;;;;;;11.45;6.75;;;;;;;5.27;78.74;100392.31;4437811;32;33384;-85
2022/12/05 01:59:16;;;;;;;9.95;5.65;;;;;;;5.21;79.02;100390.44;4438333;32;34268;-84
2022/12/05 02:01:43;;;;;;;8.60;5.47;;;;;;;5.37;77.76;100392.81;4438545;32;34071;-84
2022/12/05 02:04:12;;;;;;;11.25;6.20;;;;;;;5.40;77.87;100400.50;4452768;32;34054;-84
2022/12/05 02:06:39;;;;;;;9.55;5.82;;;;;;;5.63;76.97;100394.78;4452601;32;33300;-86
2022/12/05 02:09:07;;;;;;;9.25;5.70;;;;;;;5.34;78.15;100395.91;4438198;32;33896;-85
2022/12/05 02:11:41;;;;;;;10.40;6.50;;;;;;;5.35;78.13;100398.38;4442169;32;34188;-87
2022/12/05 02:14:18;;;;;;;9.75;5.78;;;;;;;4.86;80.35;100403.84;4452238;32;34895;-84
2022/12/05 02:17:02;;;;;;;10.38;6.30;;;;;;;5.43;78.17;100401.94;4452413;32;34435;-85
2022/12/05 02:20:17;;;;;;;10.63;6.10;;;;;;;5.11;78.82;100402.38;4441141;32;33669;-88
2022/12/05 02:23:25;;;;;;;10.67;6.47;;;;;;;5.48;77.91;100400.31;4451129;32;34100;-84
2022/12/05 02:26:30;;;;;;;12.07;7.62;;;;;;;4.99;80.03;100403.97;4453580;32;33823;-85
2022/12/05 02:29:29;;;;;;;10.57;6.20;;;;;;;5.35;78.29;100408.31;4458471;32;34387;-86
2022/12/05 02:32:08;;;;;;;10.60;6.20;;;;;;;5.70;77.05;100413.66;4422774;32;33905;-85
2022/12/05 02:34:50;;;;;;;10.80;6.30;;;;;;;5.06;79.82;100415.59;4440323;32;33888;-86
2022/12/05 02:37:31;;;;;;;9.27;6.25;;;;;;;5.82;76.62;100413.94;4453333;32;33592;-86
2022/12/05 02:40:14;;;;;;;10.65;6.40;;;;;;;5.26;78.92;100409.50;4453613;32;33566;-88
2022/12/05 02:42:48;;;;;;;10.63;6.90;;;;;;;5.48;78.92;100415.63;4440885;32;34558;-85
2022/12/05 02:45:17;;;;;;;10.20;6.30;;;;;;;5.42;78.76;100419.97;4443908;32;33879;-85
2022/12/05 02:47:47;;;;;;;10.52;6.40;;;;;;;5.45;78.68;100422.25;4437851;32;33978;-85
2022/12/05 02:50:18;;;;;;;11.12;6.40;;;;;;;5.48;78.72;100421.84;4447692;32;33544;-85
2022/12/05 02:52:47;;;;;;;10.98;6.43;;;;;;;5.60;77.98;100415.91;4451009;32;34801;-86
2022/12/05 02:55:16;;;;;;;10.40;6.22;;;;;;;5.70;77.49;100413.66;4468009;32;33920;-85
2022/12/05 02:57:46;;;;;;;10.60;6.43;;;;;;;5.97;76.32;100422.72;4453778;32;34499;-86
2022/12/05 03:00:14;;;;;;;10.45;7.00;;;;;;;5.74;77.72;100428.38;4453497;32;33257;-84
2022/12/05 03:02:42;;;;;;;11.00;6.60;;;;;;;5.26;79.76;100423.78;4437365;32;34800;-84
2022/12/05 03:05:19;;;;;;;11.00;6.85;;;;;;;5.11;80.05;100423.87;4436956;32;34644;-84
2022/12/05 03:07:49;;;;;;;11.07;6.87;;;;;;;5.40;79.71;100419.34;4444327;32;34372;-84
2022/12/05 03:10:18;;;;;;;11.98;7.32;;;;;;;5.70;78.47;100416.34;4439190;32;33783;-85
2022/12/05 03:12:50;;;;;;;12.85;7.62;;;;;;;5.71;77.80;100421.53;4467516;32;34728;-86
2022/12/05 03:15:25;;;;;;;10.65;6.72;;;;;;;5.51;78.82;100418.78;4453499;32;34464;-86
2022/12/05 03:18:03;;;;;;;13.32;7.68;;;;;;;5.28;81.11;100423.59;4439087;32;34239;-86
2022/12/05 03:20:38;;;;;;;11.10;6.90;;;;;;;5.64;79.50;100419.87;4436270;32;33184;-86
2022/12/05 03:23:11;;;;;;;12.40;7.50;;;;;;;5.78;78.39;100412.66;4445603;32;33993;-86
2022/12/05 03:26:14;;;;;;;10.65;6.90;;;;;;;5.65;79.53;100421.53;4437938;32;34201;-85
2022/12/05 03:28:47;;;;;;;11.68;7.55;;;;;;;5.40;80.80;100413.09;4425412;32;35211;-86
2022/12/05 03:31:18;;;;;;;11.18;7.62;;;;;;;5.44;80.23;100414.38;4437052;32;33561;-85
2022/12/05 03:33:49;;;;;;;13.32;7.82;;;;;;;5.84;78.09;100403.78;4435365;32;34793;-86
2022/12/05 03:36:21;;;;;;;13.82;8.20;;;;;;;5.44;80.03;100406.28;4409671;32;33082;-86
2022/12/05 03:39:00;;;;;;;12.27;7.87;;;;;;;5.77;78.81;100409.16;4447367;32;34555;-84
2022/12/05 03:41:46;;;;;;;14.10;8.30;;;;;;;5.49;80.15;100410.06;4422588;32;33859;-85
2022/12/05 03:44:33;;;;;;;14.10;8.32;;;;;;;5.52;80.00;100408.81;4422504;32;34623;-85
2022/12/05 03:47:11;;;;;;;14.52;9.27;;;;;;;5.03;82.79;100402.56;4422450;32;33787;-85
2022/12/05 03:49:43;;;;;;;16.37;8.82;;;;;;;4.84;83.98;100412.12;4420677;32;33662;-83
2022/12/05 03:52:23;;;;;;;14.68;9.07;;;;;;;4.74;84.75;100411.62;4437473;32;32214;-85
2022/12/05 03:54:53;;;;;;;14.25;8.68;;;;;;;5.20;82.44;100404.91;4409663;32;34688;-85
2022/12/05 03:57:25;;;;;;;15.23;9.27;;;;;;;4.59;86.00;100413.56;4436050;32;33776;-85
2022/12/05 03:59:59;;;;;;;14.70;9.02;;;;;;;4.50;87.14;100420.94;4421795;32;34224;-85
2022/12/05 04:02:44;;;;;;;15.70;8.88;;;;;;;5.13;83.97;100421.84;4410405;32;33298;-86
2022/12/05 04:05:25;;;;;;;15.60;10.00;;;;;;;5.00;83.78;100423.63;4437276;32;34659;-86
2022/12/05 04:08:25;;;;;;;13.32;8.70;;;;;;;5.29;82.72;100412.66;4422179;32;33984;-84
2022/12/05 04:10:55;;;;;;;13.45;8.73;;;;;;;5.52;81.41;100415.03;4424566;32;34745;-83
2022/12/05 04:13:25;;;;;;;13.30;8.57;;;;;;;5.20;83.03;100416.50;4435892;32;33538;-85
2022/12/05 04:19:05;;;;;;;13.65;9.02;;;;;;;4.62;85.94;100416.72;4460262;32;34008;-85
2022/12/05 04:21:37;;;;;;;15.98;9.05;;;;;;;5.23;83.64;100409.91;4437238;32;34074;-85
2022/12/05 04:27:24;;;;;;;17.87;9.02;;;;;;;5.26;82.47;100406.81;4450595;32;33456;-83
2022/12/05 04:30:07;;;;;;;15.52;9.75;;;;;;;4.90;85.09;100408.66;4425815;32;34829;-83
2022/12/05 04:32:49;;;;;;;15.20;8.93;;;;;;;5.27;82.92;100403.94;4437071;32;33863;-83
2022/12/05 04:35:24;;;;;;;15.88;9.95;;;;;;;4.77;85.82;100397.78;4437914;32;32987;-84
2022/12/05 04:38:01;;;;;;;16.08;10.63;;;;;;;4.71;86.85;100383.28;4451717;32;33854;-85
2022/12/05 04:40:43;;;;;;;14.90;9.93;;;;;;;4.70;86.66;100388.84;4436325;32;35098;-86
2022/12/05 04:43:12;;;;;;;15.98;10.20;;;;;;;5.09;84.94;100393.66;4438136;32;34335;-84
2022/12/05 04:45:40;;;;;;;16.12;9.88;;;;;;;5.17;84.24;100394.56;4450962;32;33229;-82
2022/12/05 04:48:11;;;;;;;15.65;10.15;;;;;;;5.02;85.41;100392.81;4437354;32;34731;-83
2022/12/05 04:50:39;;;;;;;16.23;10.15;;;;;;;4.91;85.61;100391.50;4421899;32;35544;-84
2022/12/05 04:53:08;;;;;;;18.58;11.07;;;;;;;4.69;86.80;100388.03;4422320;32;34849;-85
2022/12/05 04:55:36;;;;;;;17.23;10.88;;;;;;;4.56;87.90;100393.28;4422808;32;33635;-83
2022/12/05 04:58:14;;;;;;;20.30;12.00;;;;;;;4.81;86.47;100388.31;4436417;32;33507;-84
2022/12/05 05:01:15;;;;;;;18.95;11.88;;;;;;;4.76;86.93;100387.25;4423853;32;33988;-84
2022/12/05 05:04:10;;;;;;;20.15;12.02;;;;;;;4.86;86.29;100388.56;4438300;32;34622;-83
2022/12/05 05:06:39;;;;;;;18.62;10.75;;;;;;;5.26;83.86;100391.50;4424348;32;33221;-84
2022/12/05 05:09:07;;;;;;;16.62;10.88;;;;;;;4.87;86.21;100394.78;4424042;32;33892;-82
2022/12/05 05:11:34;;;;;;;17.33;10.25;;;;;;;5.10;84.80;100411.47;4423392;32;35041;-85
2022/12/05 05:14:03;;;;;;;16.12;8.90;;;;;;;5.30;83.35;100416.16;4436294;32;33992;-84
2022/12/05 05:16:36;;;;;;;14.60;9.38;;;;;;;5.47;82.54;100419.38;4448806;32;33619;-84
2022/12/05 05:19:05;;;;;;;15.20;10.35;;;;;;;5.54;82.92;100420.22;4423879;32;34603;-79
2022/12/05 05:21:35;;;;;;;14.35;9.45;;;;;;;5.41;82.92;100420.97;4441994;32;34092;-82
2022/12/05 05:24:02;;;;;;;15.45;10.00;;;;;;;5.53;82.32;100414.00;4452104;32;35073;-83
2022/12/05 05:26:33;;;;;;;15.02;9.30;;;;;;;5.45;82.69;100418.72;4446914;32;33306;-83
2022/12/05 05:29:02;;;;;;;13.20;9.20;;;;;;;5.37;83.16;100419.72;4448426;32;34659;-83
2022/12/05 05:31:29;;;;;;;13.60;9.38;;;;;;;4.82;85.97;100413.34;4461094;32;34177;-85
2022/12/05 05:33:57;;;;;;;14.27;9.70;;;;;;;5.09;84.79;100417.06;4451437;32;33447;-82
2022/12/05 05:36:26;;;;;;;15.10;9.52;;;;;;;5.25;83.95;100416.75;4453235;32;32851;-83
2022/12/05 05:38:56;;;;;;;14.00;9.25;;;;;;;5.25;83.92;100419.44;4462374;32;34454;-84
2022/12/05 05:41:31;;;;;;;14.07;9.15;;;;;;;5.41;83.54;100417.47;4452348;32;33900;-84
2022/12/05 05:43:59;;;;;;;14.32;9.38;;;;;;;5.42;82.69;100413.72;4462393;32;34229;-86
2022/12/05 05:46:29;;;;;;;14.05;9.82;;;;;;;5.18;84.17;100423.09;4438383;32;32857;-85
2022/12/05 05:48:57;;;;;;;14.93;10.20;;;;;;;4.92;85.09;100419.19;4451216;32;34314;-86
2022/12/05 05:51:26;;;;;;;0.98;0.93;;;;;;;4.94;86.09;100415.28;4438914;32;34255;-84
2022/12/05 05:53:57;;;;;;;17.00;10.55;;;;;;;4.78;87.12;100420.16;4464122;32;33846;-84
2022/12/05 05:56:25;;;;;;;18.10;10.73;;;;;;;4.94;86.68;100425.22;4452870;32;33197;-83
2022/12/05 05:58:55;;;;;;;16.33;10.35;;;;;;;5.08;85.91;100423.47;4462489;32;33565;-84
2022/12/05 06:01:23;;;;;;;16.98;9.90;;;;;;;5.06;85.65;100425.53;4459817;32;33806;-84
2022/12/05 06:03:50;;;;;;;14.60;9.20;;;;;;;5.66;82.36;100436.63;4462321;32;33626;-85
2022/12/05 06:06:19;;;;;;;15.23;10.25;;;;;;;5.41;83.39;100431.75;4462474;32;33258;-85
2022/12/05 06:08:47;;;;;;;13.65;8.98;;;;;;;4.88;86.03;100436.75;4459593;32;34830;-84
2022/12/05 06:11:19;;;;;;;14.13;9.63;;;;;;;5.04;86.11;100441.84;4449540;32;34077;-84
2022/12/05 06:13:54;;;;;;;20.60;12.52;;;;;;;5.01;85.20;100438.72;4448916;32;34637;-83
2022/12/05 06:16:22;;;;;;;16.15;10.55;;;;;;;5.08;85.15;100437.75;4456648;32;91371;-82
2022/12/05 06:18:51;;;;;;;12.85;9.10;;;;;;;5.34;84.60;100437.09;4432826;32;33845;-82
2022/12/05 06:21:19;;;;;;;16.37;9.45;;;;;;;5.15;84.56;100448.56;4449010;32;35097;-79
2022/12/05 06:23:48;;;;;;;15.18;9.82;;;;;;;5.15;85.49;100443.16;4465989;32;34772;-80
2022/12/05 06:26:18;;;;;;;13.68;9.18;;;;;;;4.97;86.52;100443.66;4460611;32;35279;-81
2022/12/05 06:28:46;;;;;;;17.50;10.07;;;;;;;5.02;85.55;100446.59;4451657;32;33652;-86
2022/12/05 06:31:16;;;;;;;16.48;11.25;;;;;;;5.17;85.45;100449.19;4458635;32;33753;-89
2022/12/05 06:33:44;;;;;;;22.27;13.48;;;;;;;5.32;84.57;100451.78;4451434;32;34810;-82
2022/12/05 06:36:14;;;;;;;16.92;10.85;;;;;;;5.62;82.88;100451.53;4448915;32;33384;-89
2022/12/05 06:38:42;;;;;;;16.08;10.60;;;;;;;5.45;83.81;100445.66;4459403;32;34541;-86
2022/12/05 06:41:19;;;;;;;15.82;10.07;;;;;;;5.09;84.98;100452.00;4436496;32;33167;-76
2022/12/05 06:43:47;;;;;;;16.20;9.70;;;;;;;5.49;84.03;100453.13;4452325;32;34147;-77
2022/12/05 06:46:15;;;;;;;15.85;10.40;;;;;;;5.32;83.88;100460.66;4452426;32;33423;-76
2022/12/05 06:48:42;;;;;;;15.75;10.10;;;;;;;5.21;84.23;100463.09;4460589;32;34038;-76
2022/12/05 06:51:12;;;;;;;17.15;10.15;;;;;;;5.60;83.08;100465.19;4461796;32;34617;-75
2022/12/05 06:53:39;;;;;;;15.68;9.73;;;;;;;5.74;82.24;100464.25;4446056;32;33949;-77
2022/12/05 06:56:11;;;;;;;15.00;10.48;;;;;;;5.56;83.57;100458.53;4461106;32;33582;-78
2022/12/05 06:58:39;;;;;;;14.82;9.45;;;;;;;5.33;83.43;100456.12;4436021;32;33615;-76
2022/12/05 07:03:58;;;;;;;15.25;9.98;;;;;;;5.51;83.48;100463.69;4450007;32;34231;-77
2022/12/05 07:06:26;;;;;;;16.92;10.73;;;;;;;5.19;85.11;100460.59;4462894;32;32490;-76
2022/12/05 07:08:54;;;;;;;17.20;11.05;;;;;;;5.47;84.14;100467.81;4450301;32;33613;-77
2022/12/05 07:11:21;;;;;;;16.37;10.02;;;;;;;5.72;82.75;100473.53;4459005;32;34683;-78
2022/12/05 07:13:49;;;;;;;15.80;10.00;;;;;;;5.90;81.98;100476.53;4460978;32;33594;-75
2022/12/05 07:16:16;;;;;;;17.77;10.75;;;;;;;5.76;82.17;100474.78;4463337;32;33098;-77
2022/12/05 07:18:44;;;;;;;15.70;9.82;;;;;;;5.61;82.46;100485.69;4466691;32;33663;-77
2022/12/05 07:21:13;;;;;;;17.00;10.73;;;;;;;5.55;83.20;100495.41;4453974;32;33036;-77
2022/12/05 07:23:42;;;;;;;17.20;11.12;;;;;;;5.92;81.69;100487.94;4452177;32;34149;-83
2022/12/05 07:26:17;;;;;;;17.50;10.07;;;;;;;6.14;80.68;100488.69;4467867;32;34659;-81
2022/12/05 07:28:45;;;;;;;16.30;11.23;;;;;;;6.24;80.18;100482.91;4449033;32;33827;-80
2022/12/05 07:31:16;;;;;;;17.92;12.75;;;;;;;5.95;81.67;100484.03;4440282;32;33802;-79
2022/12/05 07:33:43;;;;;;;16.80;11.35;;;;;;;5.61;82.81;100476.78;4451748;32;34377;-80
2022/12/05 07:36:13;;;;;;;18.37;11.55;;;;;;;5.88;81.72;100489.38;4449169;32;34295;-80
2022/12/05 07:38:42;;;;;;;19.92;13.02;;;;;;;5.32;84.46;100503.72;4448878;32;34080;-75
2022/12/05 07:41:13;;;;;;;17.40;11.12;;;;;;;5.58;83.59;100498.72;4460067;32;34242;-77
2022/12/05 07:43:42;;;;;;;23.20;16.55;;;;;;;5.71;82.96;100510.41;4451223;32;34152;-76
2022/12/05 07:46:10;;;;;;;25.25;16.83;;;;;;;5.61;83.25;100512.59;4454846;32;33505;-80
2022/12/05 07:48:38;;;;;;;28.77;22.30;;;;;;;6.01;81.23;100503.97;4466614;32;33785;-83
2022/12/05 07:51:08;;;;;;;14.87;11.30;;;;;;;5.87;81.94;100498.47;4440885;32;33430;-80
2022/12/05 07:53:36;;;;;;;19.42;13.90;;;;;;;5.93;82.32;100505.75;4466809;32;34603;-77
2022/12/05 07:56:05;;;;;;;17.05;11.27;;;;;;;6.05;81.51;100508.75;4451035;32;34272;-79
2022/12/05 07:58:34;;;;;;;13.73;8.98;;;;;;;5.95;81.80;100509.09;4438634;32;33632;-80
2022/12/05 08:01:16;;;;;;;16.55;9.57;;;;;;;5.65;82.75;100511.19;4453090;32;34188;-81
2022/12/05 08:03:44;;;;;;;13.23;9.00;;;;;;;5.90;81.51;100510.72;4468445;32;34037;-77
2022/12/05 08:06:14;;;;;;;14.00;9.00;;;;;;;5.54;83.49;100517.12;4457878;32;33480;-84
2022/12/05 08:08:42;;;;;;;13.40;8.82;;;;;;;5.46;83.71;100511.87;4461148;32;34995;-76
2022/12/05 08:11:16;;;;;;;15.02;9.38;;;;;;;6.00;81.56;100513.88;4444737;32;33918;-83
2022/12/05 08:13:43;;;;;;;15.80;10.00;;;;;;;5.70;83.28;100515.97;4465140;32;34794;-83
2022/12/05 08:16:14;;;;;;;15.93;9.25;;;;;;;5.88;82.22;100520.84;4466102;32;34530;-81
2022/12/05 08:18:42;;;;;;;12.75;9.07;;;;;;;6.04;81.68;100515.16;4453184;32;33401;-82
2022/12/05 08:21:11;;;;;;;15.57;9.18;;;;;;;6.09;81.46;100510.00;4464878;32;34138;-82
2022/12/05 08:23:39;;;;;;;15.93;9.55;;;;;;;6.05;80.97;100519.53;4468069;32;34569;-79
2022/12/05 08:26:14;;;;;;;13.77;9.07;;;;;;;5.92;81.31;100512.19;4440775;32;32539;-81
2022/12/05 08:28:42;;;;;;;14.23;9.02;;;;;;;5.71;82.15;100512.25;4449933;32;34466;-78
2022/12/05 08:31:12;;;;;;;13.80;9.45;;;;;;;6.30;79.62;100513.59;4437073;32;33383;-84
2022/12/05 08:33:39;;;;;;;13.77;9.32;;;;;;;6.50;78.96;100517.22;4451580;32;34560;-81
2022/12/05 08:36:09;;;;;;;16.02;9.68;;;;;;;6.14;79.96;100517.50;4439486;32;33973;-81
2022/12/05 08:38:37;;;;;;;13.50;8.68;;;;;;;6.18;80.94;100525.97;4461985;32;34653;-81
2022/12/05 08:41:06;;;;;;;12.95;7.97;;;;;;;6.53;79.21;100526.75;4463681;32;34184;-77
2022/12/05 08:43:34;;;;;;;13.95;10.05;;;;;;;6.58;78.62;100516.19;4467459;32;34466;-72
2022/12/05 08:46:02;;;;;;;13.62;8.98;;;;;;;6.84;77.44;100519.97;4466776;32;33575;-71
2022/12/05 08:48:30;;;;;;;14.35;9.98;;;;;;;6.55;77.76;100511.19;4466532;32;34665;-77
2022/12/05 08:50:58;;;;;;;16.12;10.00;;;;;;;6.43;78.14;100524.41;4469088;32;34068;-77
2022/12/05 08:53:26;;;;;;;12.73;8.98;;;;;;;6.77;77.13;100522.66;4468321;32;33664;-81
2022/12/05 08:55:53;;;;;;;13.98;9.13;;;;;;;6.45;78.57;100519.66;4469139;32;33619;-90
2022/12/05 08:58:20;;;;;;;14.00;9.65;;;;;;;6.15;79.89;100528.06;4467032;32;34387;-80
2022/12/05 09:00:48;;;;;;;15.10;9.60;;;;;;;6.12;79.49;100525.75;4467808;32;34529;-75
2022/12/05 09:03:15;;;;;;;13.73;8.82;;;;;;;6.48;78.28;100529.19;4466311;32;33871;-86
2022/12/05 09:05:43;;;;;;;13.75;9.63;;;;;;;6.14;80.50;100528.25;4453986;32;33530;-72
2022/12/05 09:08:10;;;;;;;14.63;8.88;;;;;;;5.99;80.16;100523.00;4442678;32;33351;-74
2022/12/05 09:10:38;;;;;;;13.48;8.98;;;;;;;6.10;80.57;100521.63;4460528;32;34262;-74
2022/12/05 09:13:06;;;;;;;12.75;8.68;;;;;;;6.70;78.07;100522.63;4469184;32;34956;-75
2022/12/05 09:15:33;;;;;;;11.18;8.02;;;;;;;6.37;78.71;100517.12;4468459;32;34357;-76
2022/12/05 09:18:01;;;;;;;14.30;10.23;;;;;;;6.53;77.97;100518.66;4468808;32;34069;-76
2022/12/05 09:20:28;;;;;;;13.90;9.85;;;;;;;6.05;79.01;100522.22;4468493;32;35562;-71
2022/12/05 09:22:56;;;;;;;14.57;10.35;;;;;;;6.31;78.90;100513.41;4469302;32;33936;-69
2022/12/05 09:25:23;;;;;;;16.62;10.10;;;;;;;6.51;78.17;100512.63;4462813;32;34420;-79
2022/12/05 09:27:53;;;;;;;14.30;9.23;;;;;;;6.20;79.65;100514.00;4430853;32;33737;-74
2022/12/05 09:30:22;;;;;;;13.93;9.18;;;;;;;6.18;79.83;100507.13;4435188;32;34164;-70
2022/12/05 09:32:49;;;;;;;14.25;8.75;;;;;;;6.39;78.82;100511.56;4438363;32;34140;-73
2022/12/05 09:35:17;;;;;;;12.88;8.50;;;;;;;6.86;76.78;100501.72;4436699;32;33051;-82
2022/12/05 09:37:44;;;;;;;15.40;9.60;;;;;;;6.93;75.96;100495.28;4437454;32;34775;-74
2022/12/05 09:40:16;;;;;;;15.20;9.20;;;;;;;6.25;78.60;100506.13;4454979;32;35203;-76
2022/12/05 09:43:04;;;;;;;15.95;9.88;;;;;;;6.07;80.24;100509.38;4439580;32;34778;-75
2022/12/05 09:45:38;;;;;;;13.45;9.63;;;;;;;6.09;80.54;100507.31;4439017;32;33101;-74
2022/12/05 09:48:10;;;;;;;17.08;10.02;;;;;;;6.27;79.98;100506.75;4440155;32;34623;-89
2022/12/05 09:50:45;;;;;;;14.07;10.32;;;;;;;6.42;79.54;100509.28;4439783;32;33891;-94
2022/12/05 09:53:26;;;;;;;15.68;10.60;;;;;;;6.61;78.91;100506.84;4440504;32;34983;-84
2022/12/05 09:56:03;;;;;;;16.15;11.52;;;;;;;6.24;79.60;100504.47;4453023;32;33624;-81
2022/12/05 09:58:39;;;;;;;14.05;9.77;;;;;;;6.43;79.16;100502.03;4440739;32;33800;-82
2022/12/05 10:01:26;;;;;;;15.40;10.55;;;;;;;6.35;79.47;100498.50;4440321;32;34208;-86
2022/12/05 10:04:00;;;;;;;14.23;10.05;;;;;;;6.66;78.46;100486.31;4454620;32;34024;-81
2022/12/05 10:06:36;;;;;;;15.15;10.75;;;;;;;7.09;76.56;100477.84;4444242;32;33577;-84
2022/12/05 10:09:15;;;;;;;14.30;10.50;;;;;;;6.83;76.91;100469.75;4436909;32;33704;-80
2022/12/05 10:11:54;;;;;;;15.60;11.12;;;;;;;6.74;77.82;100472.66;4438803;32;34873;-85
2022/12/05 10:14:29;;;;;;;14.75;10.95;;;;;;;6.56;78.33;100461.63;4445502;32;33910;-83
2022/12/05 10:17:02;;;;;;;16.45;11.48;;;;;;;6.59;78.87;100474.72;4447605;32;33540;-81
2022/12/05 10:19:39;;;;;;;20.65;13.23;;;;;;;7.27;76.06;100466.41;4424669;32;33736;-82
2022/12/05 10:22:18;;;;;;;17.67;11.65;;;;;;;7.15;76.30;100458.13;4440350;32;34250;-80
2022/12/05 10:24:51;;;;;;;17.87;12.73;;;;;;;6.76;77.29;100446.31;4456239;32;33970;-82
2022/12/05 10:27:20;;;;;;;18.73;12.52;;;;;;;6.53;78.77;100448.56;4456163;32;33481;-81
2022/12/05 10:29:59;;;;;;;20.00;13.27;;;;;;;6.82;77.87;100439.25;4455495;32;33484;-80
2022/12/05 10:32:42;;;;;;;21.00;14.32;;;;;;;6.92;76.98;100436.97;4456075;32;34021;-84
2022/12/05 10:35:23;;;;;;;20.75;14.85;;;;;;;6.68;77.94;100440.28;4469766;32;34743;-81
2022/12/05 10:37:58;;;;;;;22.15;15.35;;;;;;;6.78;77.53;100429.91;4471096;32;33315;-82
2022/12/05 10:40:38;;;;;;;19.33;13.30;;;;;;;6.92;76.91;100433.44;4468648;32;34739;-81
2022/12/05 10:43:07;;;;;;;21.30;14.32;;;;;;;7.16;75.50;100434.66;4443263;32;33477;-82
2022/12/05 10:45:40;;;;;;;19.45;14.05;;;;;;;7.21;75.96;100437.56;4455710;32;34093;-82
2022/12/05 10:48:10;;;;;;;20.55;14.18;;;;;;;7.35;75.52;100447.31;4454929;32;33180;-81
2022/12/05 10:50:41;;;;;;;21.60;13.77;;;;;;;6.97;76.63;100447.13;4451170;32;34082;-80
2022/12/05 10:53:12;;;;;;;18.55;13.50;;;;;;;7.10;76.57;100451.69;4469521;32;34252;-81
2022/12/05 10:55:43;;;;;;;21.25;15.00;;;;;;;7.61;74.62;100459.09;4455736;32;34083;-80
2022/12/05 10:58:30;;;;;;;22.58;14.30;;;;;;;7.04;77.13;100439.88;4459373;32;33155;-83
2022/12/05 11:01:07;;;;;;;21.12;14.87;;;;;;;7.26;76.19;100439.66;4472440;32;34020;-81
2022/12/05 11:03:37;;;;;;;21.58;14.95;;;;;;;7.06;76.39;100428.88;4469340;32;34268;-83
2022/12/05 11:06:18;;;;;;;21.25;15.52;;;;;;;7.22;75.65;100430.31;4455922;32;34592;-80
2022/12/05 11:08:52;;;;;;;20.52;14.87;;;;;;;6.93;76.98;100425.16;4459868;32;33682;-80
2022/12/05 11:11:32;;;;;;;20.25;15.43;;;;;;;7.38;74.68;100427.97;4462325;32;34443;-82
2022/12/05 11:14:05;;;;;;;22.37;15.70;;;;;;;7.73;73.57;100425.00;4462810;32;34226;-82
2022/12/05 11:16:35;;;;;;;22.70;14.85;;;;;;;7.48;74.34;100415.94;4454414;32;33903;-81
2022/12/05 11:19:20;;;;;;;20.08;15.27;;;;;;;6.92;76.38;100419.97;4468481;32;33703;-82
2022/12/05 11:21:48;;;;;;;23.52;15.50;;;;;;;7.03;77.45;100421.19;4468485;32;33975;-83
2022/12/05 11:24:25;;;;;;;27.55;16.80;;;;;;;6.85;77.28;100419.16;4451336;32;32776;-82
2022/12/05 11:26:54;;;;;;;20.42;14.43;;;;;;;7.16;76.79;100429.28;4453474;32;34190;-82
2022/12/05 11:29:36;;;;;;;21.58;15.43;;;;;;;7.77;74.36;100423.50;4438694;32;33934;-82
2022/12/05 11:32:08;;;;;;;22.75;15.90;;;;;;;7.71;73.04;100416.28;4443127;32;34047;-81
2022/12/05 11:35:08;;;;;;;19.50;15.10;;;;;;;7.59;74.12;100404.47;4446149;32;32751;-81
2022/12/05 11:37:52;;;;;;;21.67;15.45;;;;;;;7.49;74.73;100404.91;4434263;32;33495;-82
2022/12/05 11:40:42;;;;;;;23.80;17.35;;;;;;;7.69;72.84;100396.75;4438466;32;33792;-82
2022/12/05 11:43:22;;;;;;;22.85;16.80;;;;;;;7.13;75.61;100397.31;4454339;32;33746;-81
2022/12/05 11:46:23;;;;;;;21.65;15.98;;;;;;;7.25;75.50;100392.09;4439466;32;34424;-80
2022/12/05 11:49:16;;;;;;;21.75;15.30;;;;;;;7.61;74.20;100394.28;4445261;32;33810;-80
2022/12/05 11:52:09;;;;;;;24.80;17.10;;;;;;;7.48;74.42;100395.16;4438423;32;32345;-83
2022/12/05 11:54:51;;;;;;;20.85;15.27;;;;;;;7.22;75.31;100379.03;4452392;32;34041;-83
2022/12/05 11:57:56;;;;;;;23.23;15.75;;;;;;;7.47;74.64;100376.47;4451963;32;33939;-81
2022/12/05 12:00:28;;;;;;;25.40;15.63;;;;;;;7.49;74.20;100383.28;4453327;32;33947;-82